sensor_id;sensor_type;location;lat;lon;timestamp;P1;durP1;ratioP1;P2;durP2;ratioP2
42478;SDS011;28110;47.080;9.476;2024-03-07T00:01:33;13.03;;;6.90;;
42478;SDS011;28110;47.080;9.476;2024-03-07T00:03:58;14.55;;;6.82;;
42478;SDS011;28110;47.080;9.476;2024-03-07T00:06:24;14.40;;;7.03;;
42478;SDS011;28110;47.080;9.476;2024-03-07T00:08:50;9.88;;;6.35;;
42478;SDS011;28110;47.080;9.476;2024-03-07T00:11:15;13.87;;;7.00;;
42478;SDS011;28110;47.080;9.476;2024-03-07T00:13:41;12.23;;;6.43;;
42478;SDS011;28110;47.080;9.476;2024-03-07T00:16:07;14.95;;;7.45;;
42478;SDS011;28110;47.080;9.476;2024-03-07T00:18:35;18.08;;;7.18;;
42478;SDS011;28110;47.080;9.476;2024-03-07T00:21:01;17.73;;;7.28;;
42478;SDS011;28110;47.080;9.476;2024-03-07T00:23:28;15.13;;;7.23;;
42478;SDS011;28110;47.080;9.476;2024-03-07T00:25:53;13.30;;;7.15;;
42478;SDS011;28110;47.080;9.476;2024-03-07T00:28:19;11.23;;;6.80;;
42478;SDS011;28110;47.080;9.476;2024-03-07T00:30:45;13.10;;;8.15;;
42478;SDS011;28110;47.080;9.476;2024-03-07T00:33:13;17.10;;;7.87;;
42478;SDS011;28110;47.080;9.476;2024-03-07T00:35:39;16.75;;;7.72;;
42478;SDS011;28110;47.080;9.476;2024-03-07T00:38:04;17.23;;;7.90;;
42478;SDS011;28110;47.080;9.476;2024-03-07T00:40:30;13.05;;;7.78;;
42478;SDS011;28110;47.080;9.476;2024-03-07T00:42:57;14.90;;;7.97;;
42478;SDS011;28110;47.080;9.476;2024-03-07T00:45:24;13.18;;;7.70;;
42478;SDS011;28110;47.080;9.476;2024-03-07T00:47:49;11.67;;;7.53;;
42478;SDS011;28110;47.080;9.476;2024-03-07T00:50:15;14.52;;;7.75;;
42478;SDS011;28110;47.080;9.476;2024-03-07T00:52:40;16.93;;;7.90;;
42478;SDS011;28110;47.080;9.476;2024-03-07T00:55:06;12.27;;;7.88;;
42478;SDS011;28110;47.080;9.476;2024-03-07T00:57:35;17.03;;;7.50;;
42478;SDS011;28110;47.080;9.476;2024-03-07T01:00:01;13.20;;;7.75;;
42478;SDS011;28110;47.080;9.476;2024-03-07T01:02:28;14.18;;;7.57;;
42478;SDS011;28110;47.080;9.476;2024-03-07T01:04:53;13.53;;;7.60;;
42478;SDS011;28110;47.080;9.476;2024-03-07T01:07:19;11.95;;;7.45;;
42478;SDS011;28110;47.080;9.476;2024-03-07T01:09:46;17.90;;;7.97;;
42478;SDS011;28110;47.080;9.476;2024-03-07T01:12:12;13.15;;;7.63;;
42478;SDS011;28110;47.080;9.476;2024-03-07T01:14:38;12.30;;;7.80;;
42478;SDS011;28110;47.080;9.476;2024-03-07T01:17:03;19.23;;;8.80;;
42478;SDS011;28110;47.080;9.476;2024-03-07T01:19:32;18.75;;;8.23;;
42478;SDS011;28110;47.080;9.476;2024-03-07T01:21:57;18.60;;;7.93;;
42478;SDS011;28110;47.080;9.476;2024-03-07T01:24:23;17.23;;;8.03;;
42478;SDS011;28110;47.080;9.476;2024-03-07T01:26:49;17.67;;;7.85;;
42478;SDS011;28110;47.080;9.476;2024-03-07T01:29:14;15.13;;;7.97;;
42478;SDS011;28110;47.080;9.476;2024-03-07T01:31:40;17.67;;;7.95;;
42478;SDS011;28110;47.080;9.476;2024-03-07T01:34:06;13.27;;;7.30;;
42478;SDS011;28110;47.080;9.476;2024-03-07T01:36:31;14.55;;;7.78;;
42478;SDS011;28110;47.080;9.476;2024-03-07T01:38:57;13.13;;;7.83;;
42478;SDS011;28110;47.080;9.476;2024-03-07T01:41:22;14.80;;;7.67;;
42478;SDS011;28110;47.080;9.476;2024-03-07T01:43:48;14.57;;;7.97;;
42478;SDS011;28110;47.080;9.476;2024-03-07T01:46:13;14.77;;;7.10;;
42478;SDS011;28110;47.080;9.476;2024-03-07T01:48:39;11.75;;;6.28;;
42478;SDS011;28110;47.080;9.476;2024-03-07T01:51:05;10.40;;;5.83;;
42478;SDS011;28110;47.080;9.476;2024-03-07T01:53:31;8.80;;;5.28;;
42478;SDS011;28110;47.080;9.476;2024-03-07T01:55:59;9.20;;;4.72;;
42478;SDS011;28110;47.080;9.476;2024-03-07T01:58:25;8.73;;;4.97;;
42478;SDS011;28110;47.080;9.476;2024-03-07T02:00:51;7.70;;;4.87;;
42478;SDS011;28110;47.080;9.476;2024-03-07T02:03:16;7.95;;;4.93;;
42478;SDS011;28110;47.080;9.476;2024-03-07T02:05:42;8.33;;;4.97;;
42478;SDS011;28110;47.080;9.476;2024-03-07T02:08:08;7.45;;;4.85;;
42478;SDS011;28110;47.080;9.476;2024-03-07T02:10:34;6.73;;;4.57;;
42478;SDS011;28110;47.080;9.476;2024-03-07T02:12:59;8.30;;;4.57;;
42478;SDS011;28110;47.080;9.476;2024-03-07T02:15:27;8.85;;;4.80;;
42478;SDS011;28110;47.080;9.476;2024-03-07T02:17:53;8.03;;;4.50;;
42478;SDS011;28110;47.080;9.476;2024-03-07T02:26:50;7.13;;;3.45;;
42478;SDS011;28110;47.080;9.476;2024-03-07T02:29:15;6.07;;;3.17;;
42478;SDS011;28110;47.080;9.476;2024-03-07T02:31:41;4.90;;;2.95;;
42478;SDS011;28110;47.080;9.476;2024-03-07T02:34:07;5.07;;;2.80;;
42478;SDS011;28110;47.080;9.476;2024-03-07T02:36:33;5.22;;;2.60;;
42478;SDS011;28110;47.080;9.476;2024-03-07T02:38:58;8.37;;;4.30;;
42478;SDS011;28110;47.080;9.476;2024-03-07T02:41:25;13.38;;;6.18;;
42478;SDS011;28110;47.080;9.476;2024-03-07T02:43:51;10.40;;;6.10;;
42478;SDS011;28110;47.080;9.476;2024-03-07T02:46:17;11.73;;;6.55;;
42478;SDS011;28110;47.080;9.476;2024-03-07T02:48:42;12.63;;;6.43;;
42478;SDS011;28110;47.080;9.476;2024-03-07T02:51:08;13.88;;;6.75;;
42478;SDS011;28110;47.080;9.476;2024-03-07T02:53:34;14.50;;;6.17;;
42478;SDS011;28110;47.080;9.476;2024-03-07T02:56:00;13.15;;;6.50;;
42478;SDS011;28110;47.080;9.476;2024-03-07T02:58:25;13.17;;;7.17;;
42478;SDS011;28110;47.080;9.476;2024-03-07T03:01:00;13.23;;;7.50;;
42478;SDS011;28110;47.080;9.476;2024-03-07T03:03:26;15.00;;;8.32;;
42478;SDS011;28110;47.080;9.476;2024-03-07T03:05:52;14.95;;;8.88;;
42478;SDS011;28110;47.080;9.476;2024-03-07T03:08:18;13.82;;;7.60;;
42478;SDS011;28110;47.080;9.476;2024-03-07T03:10:43;14.77;;;7.93;;
42478;SDS011;28110;47.080;9.476;2024-03-07T03:13:09;12.60;;;7.13;;
42478;SDS011;28110;47.080;9.476;2024-03-07T03:15:35;13.68;;;7.40;;
42478;SDS011;28110;47.080;9.476;2024-03-07T03:18:03;16.42;;;7.63;;
42478;SDS011;28110;47.080;9.476;2024-03-07T03:20:30;16.85;;;7.70;;
42478;SDS011;28110;47.080;9.476;2024-03-07T03:22:59;19.00;;;6.80;;
42478;SDS011;28110;47.080;9.476;2024-03-07T03:25:25;12.80;;;7.38;;
42478;SDS011;28110;47.080;9.476;2024-03-07T03:27:51;14.50;;;8.00;;
42478;SDS011;28110;47.080;9.476;2024-03-07T03:30:17;14.63;;;7.17;;
42478;SDS011;28110;47.080;9.476;2024-03-07T03:32:47;14.00;;;7.97;;
42478;SDS011;28110;47.080;9.476;2024-03-07T03:35:13;15.00;;;8.85;;
42478;SDS011;28110;47.080;9.476;2024-03-07T03:37:40;13.80;;;7.35;;
42478;SDS011;28110;47.080;9.476;2024-03-07T03:40:09;14.80;;;8.23;;
42478;SDS011;28110;47.080;9.476;2024-03-07T03:42:36;15.47;;;7.33;;
42478;SDS011;28110;47.080;9.476;2024-03-07T03:45:03;12.73;;;6.07;;
42478;SDS011;28110;47.080;9.476;2024-03-07T03:47:36;12.00;;;6.70;;
42478;SDS011;28110;47.080;9.476;2024-03-07T03:50:05;12.15;;;6.28;;
42478;SDS011;28110;47.080;9.476;2024-03-07T03:52:31;13.27;;;6.75;;
42478;SDS011;28110;47.080;9.476;2024-03-07T03:55:00;14.67;;;6.93;;
42478;SDS011;28110;47.080;9.476;2024-03-07T03:57:27;13.55;;;7.13;;
42478;SDS011;28110;47.080;9.476;2024-03-07T03:59:54;18.38;;;7.65;;
42478;SDS011;28110;47.080;9.476;2024-03-07T04:02:20;14.13;;;7.40;;
42478;SDS011;28110;47.080;9.476;2024-03-07T04:04:47;16.10;;;8.10;;
42478;SDS011;28110;47.080;9.476;2024-03-07T04:07:13;13.88;;;7.63;;
42478;SDS011;28110;47.080;9.476;2024-03-07T04:09:40;14.50;;;7.57;;
42478;SDS011;28110;47.080;9.476;2024-03-07T04:12:07;17.67;;;8.18;;
42478;SDS011;28110;47.080;9.476;2024-03-07T04:14:35;15.60;;;7.50;;
42478;SDS011;28110;47.080;9.476;2024-03-07T04:17:08;15.23;;;7.47;;
42478;SDS011;28110;47.080;9.476;2024-03-07T04:19:37;18.33;;;7.82;;
42478;SDS011;28110;47.080;9.476;2024-03-07T04:22:06;15.52;;;7.70;;
42478;SDS011;28110;47.080;9.476;2024-03-07T04:24:33;15.43;;;7.32;;
42478;SDS011;28110;47.080;9.476;2024-03-07T04:27:02;14.73;;;7.50;;
42478;SDS011;28110;47.080;9.476;2024-03-07T04:29:32;16.27;;;8.95;;
42478;SDS011;28110;47.080;9.476;2024-03-07T04:32:02;17.15;;;8.82;;
42478;SDS011;28110;47.080;9.476;2024-03-07T04:34:30;17.65;;;8.70;;
42478;SDS011;28110;47.080;9.476;2024-03-07T04:36:56;18.20;;;9.00;;
42478;SDS011;28110;47.080;9.476;2024-03-07T04:39:23;16.53;;;8.47;;
42478;SDS011;28110;47.080;9.476;2024-03-07T04:41:59;15.93;;;7.93;;
42478;SDS011;28110;47.080;9.476;2024-03-07T04:44:30;13.13;;;7.05;;
42478;SDS011;28110;47.080;9.476;2024-03-07T04:46:56;16.73;;;8.65;;
42478;SDS011;28110;47.080;9.476;2024-03-07T04:49:22;14.38;;;7.32;;
42478;SDS011;28110;47.080;9.476;2024-03-07T04:51:49;18.50;;;9.10;;
42478;SDS011;28110;47.080;9.476;2024-03-07T04:54:16;16.65;;;8.48;;
42478;SDS011;28110;47.080;9.476;2024-03-07T04:56:41;17.77;;;9.48;;
42478;SDS011;28110;47.080;9.476;2024-03-07T04:59:07;17.63;;;9.00;;
42478;SDS011;28110;47.080;9.476;2024-03-07T05:01:32;18.57;;;9.10;;
42478;SDS011;28110;47.080;9.476;2024-03-07T05:03:58;19.43;;;8.47;;
42478;SDS011;28110;47.080;9.476;2024-03-07T05:06:24;18.88;;;9.50;;
42478;SDS011;28110;47.080;9.476;2024-03-07T05:08:49;19.52;;;9.30;;
42478;SDS011;28110;47.080;9.476;2024-03-07T05:11:15;19.00;;;8.63;;
42478;SDS011;28110;47.080;9.476;2024-03-07T05:13:41;17.03;;;8.50;;
42478;SDS011;28110;47.080;9.476;2024-03-07T05:16:07;17.58;;;9.32;;
42478;SDS011;28110;47.080;9.476;2024-03-07T05:18:33;18.17;;;9.30;;
42478;SDS011;28110;47.080;9.476;2024-03-07T05:20:58;16.90;;;8.93;;
42478;SDS011;28110;47.080;9.476;2024-03-07T05:23:44;14.50;;;7.82;;
42478;SDS011;28110;47.080;9.476;2024-03-07T05:26:09;13.80;;;6.87;;
42478;SDS011;28110;47.080;9.476;2024-03-07T05:28:35;12.07;;;6.25;;
42478;SDS011;28110;47.080;9.476;2024-03-07T05:31:01;13.23;;;6.40;;
42478;SDS011;28110;47.080;9.476;2024-03-07T05:33:29;19.50;;;8.10;;
42478;SDS011;28110;47.080;9.476;2024-03-07T05:35:54;15.07;;;7.70;;
42478;SDS011;28110;47.080;9.476;2024-03-07T05:38:38;14.30;;;7.28;;
42478;SDS011;28110;47.080;9.476;2024-03-07T05:41:04;16.97;;;8.10;;
42478;SDS011;28110;47.080;9.476;2024-03-07T05:43:29;18.60;;;9.53;;
42478;SDS011;28110;47.080;9.476;2024-03-07T05:45:55;19.88;;;9.55;;
42478;SDS011;28110;47.080;9.476;2024-03-07T05:48:21;18.10;;;9.65;;
42478;SDS011;28110;47.080;9.476;2024-03-07T05:50:47;21.97;;;12.10;;
42478;SDS011;28110;47.080;9.476;2024-03-07T05:53:12;22.05;;;11.93;;
42478;SDS011;28110;47.080;9.476;2024-03-07T05:55:38;18.63;;;9.30;;
42478;SDS011;28110;47.080;9.476;2024-03-07T05:58:03;20.87;;;9.63;;
42478;SDS011;28110;47.080;9.476;2024-03-07T06:00:30;18.83;;;10.95;;
42478;SDS011;28110;47.080;9.476;2024-03-07T06:02:59;18.90;;;9.45;;
42478;SDS011;28110;47.080;9.476;2024-03-07T06:05:25;21.80;;;10.77;;
42478;SDS011;28110;47.080;9.476;2024-03-07T06:07:51;22.55;;;10.50;;
42478;SDS011;28110;47.080;9.476;2024-03-07T06:10:17;32.50;;;13.38;;
42478;SDS011;28110;47.080;9.476;2024-03-07T06:12:43;29.02;;;13.23;;
42478;SDS011;28110;47.080;9.476;2024-03-07T06:15:11;25.13;;;12.07;;
42478;SDS011;28110;47.080;9.476;2024-03-07T06:17:36;21.80;;;10.53;;
42478;SDS011;28110;47.080;9.476;2024-03-07T06:20:02;17.27;;;9.00;;
42478;SDS011;28110;47.080;9.476;2024-03-07T06:22:28;15.37;;;7.67;;
42478;SDS011;28110;47.080;9.476;2024-03-07T06:24:53;16.17;;;7.35;;
42478;SDS011;28110;47.080;9.476;2024-03-07T06:27:19;16.93;;;7.13;;
42478;SDS011;28110;47.080;9.476;2024-03-07T06:30:02;13.57;;;6.95;;
42478;SDS011;28110;47.080;9.476;2024-03-07T06:32:28;13.57;;;6.65;;
42478;SDS011;28110;47.080;9.476;2024-03-07T06:34:53;14.67;;;6.90;;
42478;SDS011;28110;47.080;9.476;2024-03-07T06:37:19;18.63;;;9.07;;
42478;SDS011;28110;47.080;9.476;2024-03-07T06:39:44;17.35;;;9.07;;
42478;SDS011;28110;47.080;9.476;2024-03-07T06:42:10;16.87;;;8.60;;
42478;SDS011;28110;47.080;9.476;2024-03-07T06:44:35;19.23;;;9.60;;
42478;SDS011;28110;47.080;9.476;2024-03-07T06:47:01;16.98;;;8.52;;
42478;SDS011;28110;47.080;9.476;2024-03-07T06:49:26;14.93;;;8.57;;
42478;SDS011;28110;47.080;9.476;2024-03-07T06:51:53;14.55;;;8.55;;
42478;SDS011;28110;47.080;9.476;2024-03-07T06:54:19;17.65;;;8.55;;
42478;SDS011;28110;47.080;9.476;2024-03-07T06:56:46;16.83;;;8.80;;
42478;SDS011;28110;47.080;9.476;2024-03-07T06:59:12;17.10;;;8.13;;
42478;SDS011;28110;47.080;9.476;2024-03-07T07:01:39;17.85;;;8.98;;
42478;SDS011;28110;47.080;9.476;2024-03-07T07:04:07;16.70;;;8.00;;
42478;SDS011;28110;47.080;9.476;2024-03-07T07:06:33;15.80;;;8.18;;
42478;SDS011;28110;47.080;9.476;2024-03-07T07:08:59;15.70;;;8.30;;
42478;SDS011;28110;47.080;9.476;2024-03-07T07:11:27;17.25;;;8.48;;
42478;SDS011;28110;47.080;9.476;2024-03-07T07:13:53;15.77;;;7.82;;
42478;SDS011;28110;47.080;9.476;2024-03-07T07:16:18;12.82;;;6.88;;
42478;SDS011;28110;47.080;9.476;2024-03-07T07:18:44;14.43;;;7.20;;
42478;SDS011;28110;47.080;9.476;2024-03-07T07:21:10;13.77;;;7.03;;
42478;SDS011;28110;47.080;9.476;2024-03-07T07:23:38;16.95;;;7.22;;
42478;SDS011;28110;47.080;9.476;2024-03-07T07:26:03;15.60;;;8.73;;
42478;SDS011;28110;47.080;9.476;2024-03-07T07:28:30;15.48;;;8.15;;
42478;SDS011;28110;47.080;9.476;2024-03-07T07:30:56;15.70;;;8.13;;
42478;SDS011;28110;47.080;9.476;2024-03-07T07:33:21;17.80;;;8.93;;
42478;SDS011;28110;47.080;9.476;2024-03-07T07:35:47;15.77;;;8.75;;
42478;SDS011;28110;47.080;9.476;2024-03-07T07:38:13;13.77;;;7.30;;
42478;SDS011;28110;47.080;9.476;2024-03-07T07:40:40;13.95;;;7.32;;
42478;SDS011;28110;47.080;9.476;2024-03-07T07:43:06;14.18;;;6.32;;
42478;SDS011;28110;47.080;9.476;2024-03-07T07:45:32;13.67;;;6.43;;
42478;SDS011;28110;47.080;9.476;2024-03-07T07:48:00;14.40;;;7.32;;
42478;SDS011;28110;47.080;9.476;2024-03-07T07:50:26;15.50;;;7.78;;
42478;SDS011;28110;47.080;9.476;2024-03-07T07:52:53;12.90;;;6.97;;
42478;SDS011;28110;47.080;9.476;2024-03-07T07:55:21;16.73;;;6.82;;
42478;SDS011;28110;47.080;9.476;2024-03-07T07:57:52;12.27;;;6.53;;
42478;SDS011;28110;47.080;9.476;2024-03-07T08:00:25;15.88;;;7.63;;
42478;SDS011;28110;47.080;9.476;2024-03-07T08:05:32;11.80;;;7.00;;
42478;SDS011;28110;47.080;9.476;2024-03-07T08:08:00;15.30;;;6.57;;
42478;SDS011;28110;47.080;9.476;2024-03-07T08:10:30;10.73;;;5.77;;
42478;SDS011;28110;47.080;9.476;2024-03-07T08:12:57;10.38;;;5.22;;
42478;SDS011;28110;47.080;9.476;2024-03-07T08:15:24;10.93;;;5.68;;
42478;SDS011;28110;47.080;9.476;2024-03-07T08:17:51;10.55;;;5.78;;
42478;SDS011;28110;47.080;9.476;2024-03-07T08:20:17;9.57;;;5.50;;
42478;SDS011;28110;47.080;9.476;2024-03-07T08:22:46;8.63;;;4.43;;
42478;SDS011;28110;47.080;9.476;2024-03-07T08:25:12;9.02;;;4.43;;
42478;SDS011;28110;47.080;9.476;2024-03-07T08:27:40;8.55;;;4.72;;
42478;SDS011;28110;47.080;9.476;2024-03-07T08:30:11;9.57;;;4.97;;
42478;SDS011;28110;47.080;9.476;2024-03-07T08:32:46;8.18;;;4.47;;
42478;SDS011;28110;47.080;9.476;2024-03-07T08:35:17;7.60;;;4.10;;
42478;SDS011;28110;47.080;9.476;2024-03-07T08:37:43;6.95;;;3.08;;
42478;SDS011;28110;47.080;9.476;2024-03-07T08:40:10;4.13;;;2.53;;
42478;SDS011;28110;47.080;9.476;2024-03-07T08:42:44;3.78;;;2.25;;
42478;SDS011;28110;47.080;9.476;2024-03-07T08:45:12;3.63;;;2.05;;
42478;SDS011;28110;47.080;9.476;2024-03-07T08:47:42;5.57;;;1.43;;
42478;SDS011;28110;47.080;9.476;2024-03-07T08:50:08;2.55;;;1.65;;
42478;SDS011;28110;47.080;9.476;2024-03-07T08:52:34;3.72;;;1.50;;
42478;SDS011;28110;47.080;9.476;2024-03-07T08:55:05;3.58;;;1.58;;
42478;SDS011;28110;47.080;9.476;2024-03-07T08:57:34;5.73;;;1.47;;
42478;SDS011;28110;47.080;9.476;2024-03-07T09:00:01;2.83;;;1.90;;
42478;SDS011;28110;47.080;9.476;2024-03-07T09:02:33;2.55;;;1.30;;
42478;SDS011;28110;47.080;9.476;2024-03-07T09:05:03;2.03;;;1.30;;
42478;SDS011;28110;47.080;9.476;2024-03-07T09:07:29;3.13;;;1.33;;
42478;SDS011;28110;47.080;9.476;2024-03-07T09:09:56;1.70;;;1.20;;
42478;SDS011;28110;47.080;9.476;2024-03-07T09:12:22;2.95;;;1.50;;
42478;SDS011;28110;47.080;9.476;2024-03-07T09:14:50;2.33;;;1.25;;
42478;SDS011;28110;47.080;9.476;2024-03-07T09:17:18;2.60;;;1.67;;
42478;SDS011;28110;47.080;9.476;2024-03-07T09:19:45;2.22;;;1.63;;
42478;SDS011;28110;47.080;9.476;2024-03-07T09:22:10;5.37;;;1.40;;
42478;SDS011;28110;47.080;9.476;2024-03-07T09:24:36;3.40;;;1.60;;
42478;SDS011;28110;47.080;9.476;2024-03-07T09:27:02;3.10;;;1.60;;
42478;SDS011;28110;47.080;9.476;2024-03-07T09:29:28;2.78;;;1.65;;
42478;SDS011;28110;47.080;9.476;2024-03-07T09:31:54;3.33;;;1.53;;
42478;SDS011;28110;47.080;9.476;2024-03-07T09:34:20;3.40;;;1.30;;
42478;SDS011;28110;47.080;9.476;2024-03-07T09:36:46;2.53;;;1.27;;
42478;SDS011;28110;47.080;9.476;2024-03-07T09:39:12;5.32;;;1.70;;
42478;SDS011;28110;47.080;9.476;2024-03-07T09:41:38;3.63;;;1.33;;
42478;SDS011;28110;47.080;9.476;2024-03-07T09:44:10;1.77;;;1.10;;
42478;SDS011;28110;47.080;9.476;2024-03-07T09:46:47;2.30;;;1.40;;
42478;SDS011;28110;47.080;9.476;2024-03-07T09:49:14;2.53;;;1.45;;
42478;SDS011;28110;47.080;9.476;2024-03-07T09:51:40;4.22;;;1.25;;
42478;SDS011;28110;47.080;9.476;2024-03-07T09:54:07;3.15;;;1.55;;
42478;SDS011;28110;47.080;9.476;2024-03-07T09:56:34;2.10;;;1.40;;
42478;SDS011;28110;47.080;9.476;2024-03-07T09:59:02;2.80;;;1.40;;
42478;SDS011;28110;47.080;9.476;2024-03-07T10:01:29;3.90;;;1.00;;
42478;SDS011;28110;47.080;9.476;2024-03-07T10:03:59;3.05;;;1.05;;
42478;SDS011;28110;47.080;9.476;2024-03-07T10:06:35;3.03;;;1.15;;
42478;SDS011;28110;47.080;9.476;2024-03-07T10:09:01;1.70;;;0.80;;
42478;SDS011;28110;47.080;9.476;2024-03-07T10:11:26;1.48;;;0.85;;
42478;SDS011;28110;47.080;9.476;2024-03-07T10:13:52;2.23;;;1.00;;
42478;SDS011;28110;47.080;9.476;2024-03-07T10:16:18;1.00;;;0.70;;
42478;SDS011;28110;47.080;9.476;2024-03-07T10:18:44;2.33;;;0.80;;
42478;SDS011;28110;47.080;9.476;2024-03-07T10:21:12;2.25;;;0.70;;
42478;SDS011;28110;47.080;9.476;2024-03-07T10:23:38;1.13;;;0.80;;
42478;SDS011;28110;47.080;9.476;2024-03-07T10:26:05;1.00;;;0.70;;
42478;SDS011;28110;47.080;9.476;2024-03-07T10:28:31;1.60;;;0.60;;
42478;SDS011;28110;47.080;9.476;2024-03-07T10:30:58;1.10;;;0.50;;
42478;SDS011;28110;47.080;9.476;2024-03-07T10:33:27;1.07;;;0.60;;
42478;SDS011;28110;47.080;9.476;2024-03-07T10:35:53;0.82;;;0.60;;
42478;SDS011;28110;47.080;9.476;2024-03-07T10:38:18;3.35;;;0.73;;
42478;SDS011;28110;47.080;9.476;2024-03-07T10:40:47;1.63;;;0.77;;
42478;SDS011;28110;47.080;9.476;2024-03-07T10:43:18;0.80;;;0.65;;
42478;SDS011;28110;47.080;9.476;2024-03-07T10:45:45;0.90;;;0.60;;
42478;SDS011;28110;47.080;9.476;2024-03-07T10:48:12;2.93;;;0.70;;
42478;SDS011;28110;47.080;9.476;2024-03-07T10:50:41;3.65;;;0.70;;
42478;SDS011;28110;47.080;9.476;2024-03-07T10:55:53;0.90;;;0.70;;
42478;SDS011;28110;47.080;9.476;2024-03-07T10:58:26;1.17;;;0.68;;
42478;SDS011;28110;47.080;9.476;2024-03-07T11:01:07;0.50;;;0.50;;
42478;SDS011;28110;47.080;9.476;2024-03-07T11:03:36;3.30;;;0.70;;
42478;SDS011;28110;47.080;9.476;2024-03-07T11:06:02;1.25;;;0.80;;
42478;SDS011;28110;47.080;9.476;2024-03-07T11:08:31;1.20;;;0.50;;
42478;SDS011;28110;47.080;9.476;2024-03-07T11:11:01;1.10;;;0.70;;
42478;SDS011;28110;47.080;9.476;2024-03-07T11:13:26;1.17;;;0.50;;
42478;SDS011;28110;47.080;9.476;2024-03-07T11:15:54;4.43;;;0.60;;
42478;SDS011;28110;47.080;9.476;2024-03-07T11:18:23;1.27;;;0.60;;
42478;SDS011;28110;47.080;9.476;2024-03-07T11:20:49;1.50;;;0.67;;
42478;SDS011;28110;47.080;9.476;2024-03-07T11:23:24;1.20;;;0.60;;
42478;SDS011;28110;47.080;9.476;2024-03-07T11:26:01;1.98;;;1.30;;
42478;SDS011;28110;47.080;9.476;2024-03-07T11:28:32;2.65;;;1.40;;
42478;SDS011;28110;47.080;9.476;2024-03-07T11:33:40;4.63;;;1.50;;
42478;SDS011;28110;47.080;9.476;2024-03-07T11:36:10;3.65;;;1.70;;
42478;SDS011;28110;47.080;9.476;2024-03-07T11:38:45;3.03;;;1.63;;
42478;SDS011;28110;47.080;9.476;2024-03-07T11:41:13;4.60;;;1.50;;
42478;SDS011;28110;47.080;9.476;2024-03-07T11:43:40;3.07;;;1.73;;
42478;SDS011;28110;47.080;9.476;2024-03-07T11:46:07;3.50;;;1.95;;
42478;SDS011;28110;47.080;9.476;2024-03-07T11:48:38;3.53;;;1.70;;
42478;SDS011;28110;47.080;9.476;2024-03-07T11:51:06;3.10;;;1.92;;
42478;SDS011;28110;47.080;9.476;2024-03-07T11:53:35;4.68;;;1.50;;
42478;SDS011;28110;47.080;9.476;2024-03-07T11:56:03;4.55;;;2.17;;
42478;SDS011;28110;47.080;9.476;2024-03-07T11:58:37;2.78;;;1.60;;
42478;SDS011;28110;47.080;9.476;2024-03-07T12:01:05;2.85;;;1.50;;
42478;SDS011;28110;47.080;9.476;2024-03-07T12:03:35;3.40;;;1.58;;
42478;SDS011;28110;47.080;9.476;2024-03-07T12:06:02;1.90;;;1.33;;
42478;SDS011;28110;47.080;9.476;2024-03-07T12:08:28;4.35;;;1.85;;
42478;SDS011;28110;47.080;9.476;2024-03-07T12:10:55;2.63;;;1.77;;
42478;SDS011;28110;47.080;9.476;2024-03-07T12:13:21;3.40;;;1.50;;
42478;SDS011;28110;47.080;9.476;2024-03-07T12:15:47;2.67;;;1.45;;
42478;SDS011;28110;47.080;9.476;2024-03-07T12:18:16;1.80;;;1.40;;
42478;SDS011;28110;47.080;9.476;2024-03-07T12:20:44;3.15;;;1.83;;
42478;SDS011;28110;47.080;9.476;2024-03-07T12:23:19;3.72;;;1.80;;
42478;SDS011;28110;47.080;9.476;2024-03-07T12:25:45;3.50;;;1.83;;
42478;SDS011;28110;47.080;9.476;2024-03-07T12:28:14;3.63;;;2.10;;
42478;SDS011;28110;47.080;9.476;2024-03-07T12:33:11;2.45;;;1.50;;
42478;SDS011;28110;47.080;9.476;2024-03-07T12:35:39;3.25;;;1.80;;
42478;SDS011;28110;47.080;9.476;2024-03-07T12:38:07;2.97;;;1.85;;
42478;SDS011;28110;47.080;9.476;2024-03-07T12:40:35;2.72;;;1.60;;
42478;SDS011;28110;47.080;9.476;2024-03-07T12:43:02;2.63;;;1.73;;
42478;SDS011;28110;47.080;9.476;2024-03-07T12:45:50;3.50;;;1.80;;
42478;SDS011;28110;47.080;9.476;2024-03-07T12:48:16;2.47;;;1.50;;
42478;SDS011;28110;47.080;9.476;2024-03-07T12:50:49;3.72;;;2.20;;
42478;SDS011;28110;47.080;9.476;2024-03-07T12:53:21;4.00;;;2.20;;
42478;SDS011;28110;47.080;9.476;2024-03-07T12:55:48;5.03;;;2.07;;
42478;SDS011;28110;47.080;9.476;2024-03-07T12:58:13;4.43;;;2.40;;
42478;SDS011;28110;47.080;9.476;2024-03-07T13:00:40;3.33;;;2.00;;
42478;SDS011;28110;47.080;9.476;2024-03-07T13:03:07;3.78;;;2.10;;
42478;SDS011;28110;47.080;9.476;2024-03-07T13:05:36;4.40;;;2.50;;
42478;SDS011;28110;47.080;9.476;2024-03-07T13:08:05;4.07;;;2.20;;
42478;SDS011;28110;47.080;9.476;2024-03-07T13:10:41;3.78;;;2.20;;
42478;SDS011;28110;47.080;9.476;2024-03-07T13:13:07;4.97;;;2.22;;
42478;SDS011;28110;47.080;9.476;2024-03-07T13:15:36;3.58;;;2.45;;
42478;SDS011;28110;47.080;9.476;2024-03-07T13:18:03;5.10;;;2.80;;
42478;SDS011;28110;47.080;9.476;2024-03-07T13:20:30;4.45;;;2.50;;
42478;SDS011;28110;47.080;9.476;2024-03-07T13:22:56;7.75;;;2.80;;
42478;SDS011;28110;47.080;9.476;2024-03-07T13:25:23;5.30;;;2.63;;
42478;SDS011;28110;47.080;9.476;2024-03-07T13:27:51;5.40;;;2.85;;
42478;SDS011;28110;47.080;9.476;2024-03-07T13:30:29;5.03;;;2.70;;
42478;SDS011;28110;47.080;9.476;2024-03-07T13:32:55;6.40;;;2.90;;
42478;SDS011;28110;47.080;9.476;2024-03-07T13:35:22;4.65;;;2.90;;
42478;SDS011;28110;47.080;9.476;2024-03-07T13:37:50;4.38;;;2.65;;
42478;SDS011;28110;47.080;9.476;2024-03-07T13:40:15;4.32;;;2.80;;
42478;SDS011;28110;47.080;9.476;2024-03-07T13:42:48;4.60;;;2.72;;
42478;SDS011;28110;47.080;9.476;2024-03-07T13:45:25;5.53;;;2.70;;
42478;SDS011;28110;47.080;9.476;2024-03-07T13:48:04;5.33;;;2.80;;
42478;SDS011;28110;47.080;9.476;2024-03-07T13:50:35;5.60;;;3.03;;
42478;SDS011;28110;47.080;9.476;2024-03-07T13:53:03;7.05;;;3.00;;
42478;SDS011;28110;47.080;9.476;2024-03-07T14:01:48;6.50;;;3.23;;
42478;SDS011;28110;47.080;9.476;2024-03-07T14:04:44;4.78;;;3.13;;
42478;SDS011;28110;47.080;9.476;2024-03-07T14:15:57;5.17;;;2.73;;
42478;SDS011;28110;47.080;9.476;2024-03-07T14:22:01;5.32;;;2.90;;
42478;SDS011;28110;47.080;9.476;2024-03-07T14:32:49;6.75;;;2.97;;
42478;SDS011;28110;47.080;9.476;2024-03-07T14:40:38;5.07;;;3.00;;
42478;SDS011;28110;47.080;9.476;2024-03-07T14:43:04;6.53;;;3.67;;
42478;SDS011;28110;47.080;9.476;2024-03-07T14:45:38;5.93;;;3.15;;
42478;SDS011;28110;47.080;9.476;2024-03-07T14:48:05;5.82;;;3.60;;
42478;SDS011;28110;47.080;9.476;2024-03-07T14:50:35;5.38;;;3.35;;
42478;SDS011;28110;47.080;9.476;2024-03-07T14:53:02;4.93;;;3.40;;
42478;SDS011;28110;47.080;9.476;2024-03-07T14:55:29;4.85;;;3.10;;
42478;SDS011;28110;47.080;9.476;2024-03-07T14:57:56;6.50;;;3.22;;
42478;SDS011;28110;47.080;9.476;2024-03-07T15:00:23;5.60;;;3.03;;
42478;SDS011;28110;47.080;9.476;2024-03-07T15:02:52;5.05;;;3.15;;
42478;SDS011;28110;47.080;9.476;2024-03-07T15:05:22;4.70;;;2.83;;
42478;SDS011;28110;47.080;9.476;2024-03-07T15:07:49;5.22;;;3.30;;
42478;SDS011;28110;47.080;9.476;2024-03-07T15:10:17;5.35;;;3.20;;
42478;SDS011;28110;47.080;9.476;2024-03-07T15:12:47;6.03;;;3.33;;
42478;SDS011;28110;47.080;9.476;2024-03-07T15:15:13;5.38;;;3.05;;
42478;SDS011;28110;47.080;9.476;2024-03-07T15:17:42;6.77;;;2.97;;
42478;SDS011;28110;47.080;9.476;2024-03-07T15:20:08;5.53;;;2.92;;
42478;SDS011;28110;47.080;9.476;2024-03-07T15:22:40;7.93;;;3.58;;
42478;SDS011;28110;47.080;9.476;2024-03-07T15:25:11;7.32;;;3.45;;
42478;SDS011;28110;47.080;9.476;2024-03-07T15:27:40;6.70;;;3.90;;
42478;SDS011;28110;47.080;9.476;2024-03-07T15:30:06;4.67;;;3.07;;
42478;SDS011;28110;47.080;9.476;2024-03-07T15:32:38;5.70;;;3.38;;